Time;durP1;ratioP1;P1;durP2;ratioP2;P2;SDS_P1;SDS_P2;PMS_P1;PMS_P2;Temp;Humidity;BMP_temperature;BMP_pressure;BME280_temperature;BME280_humidity;BME280_pressure;Samples;Min_cycle;Max_cycle;Signal;HPM_P1;HPM_P2
2023/04/29 00:01:25;;;;;;;0.10;0.10;;;12.80;99.90;;;;;;5080069;28;20031;-72
2023/04/29 00:03:51;;;;;;;0.13;0.13;;;12.80;99.90;;;;;;5080333;28;20061;-73
2023/04/29 00:06:17;;;;;;;0.93;0.93;;;12.80;99.90;;;;;;5081334;28;20236;-73
2023/04/29 00:08:43;;;;;;;0.10;0.10;;;12.80;99.90;;;;;;5080905;28;20054;-72
2023/04/29 00:11:10;;;;;;;0.10;0.10;;;12.80;99.90;;;;;;5079040;28;20433;-72
2023/04/29 00:13:38;;;;;;;0.10;0.10;;;12.70;99.90;;;;;;5080378;28;20049;-72
2023/04/29 00:16:05;;;;;;;0.10;0.10;;;12.70;99.90;;;;;;5083395;28;20020;-73
2023/04/29 00:18:31;;;;;;;8.02;7.72;;;12.70;99.90;;;;;;5083517;28;20036;-80
2023/04/29 00:20:57;;;;;;;0.10;0.10;;;12.70;99.90;;;;;;5080693;28;20039;-71
2023/04/29 00:23:23;;;;;;;0.20;0.20;;;12.60;99.90;;;;;;5081571;28;20223;-72
2023/04/29 00:25:52;;;;;;;0.20;0.20;;;12.60;99.90;;;;;;5079496;28;20032;-74
2023/04/29 00:28:21;;;;;;;6.47;5.82;;;12.60;99.90;;;;;;5078631;28;20146;-73
2023/04/29 00:30:46;;;;;;;0.20;0.20;;;12.60;99.90;;;;;;5080761;28;20020;-73
2023/04/29 00:33:12;;;;;;;0.10;0.10;;;12.60;99.90;;;;;;5080075;28;20028;-74
2023/04/29 00:35:38;;;;;;;0.17;0.17;;;12.60;99.90;;;;;;5080204;28;20609;-73
2023/04/29 00:38:04;;;;;;;5.22;5.00;;;12.60;99.90;;;;;;5080341;28;20193;-72
2023/04/29 00:40:30;;;;;;;0.10;0.10;;;12.60;99.90;;;;;;5079768;28;20054;-79
2023/04/29 00:42:56;;;;;;;0.10;0.10;;;12.60;99.90;;;;;;5078664;28;20201;-79
2023/04/29 00:45:23;;;;;;;0.00;0.00;;;12.50;99.90;;;;;;5079112;28;20469;-73
2023/04/29 00:47:49;;;;;;;0.10;0.10;;;12.60;99.90;;;;;;5078338;28;20316;-79
2023/04/29 00:50:14;;;;;;;0.30;0.30;;;12.60;99.90;;;;;;5079964;28;20218;-73
2023/04/29 00:52:42;;;;;;;0.52;0.52;;;12.50;99.90;;;;;;5079447;28;20060;-72
2023/04/29 00:55:09;;;;;;;6.80;6.40;;;12.50;99.90;;;;;;5061133;28;20034;-73
2023/04/29 00:57:35;;;;;;;0.10;0.10;;;12.50;99.90;;;;;;5079149;28;20020;-72
2023/04/29 01:00:01;;;;;;;4.00;2.40;;;12.50;99.90;;;;;;5078673;28;20028;-74
2023/04/29 01:02:28;;;;;;;1.65;1.65;;;12.60;99.90;;;;;;5080405;28;20254;-76
2023/04/29 01:04:54;;;;;;;0.05;0.05;;;12.60;99.90;;;;;;5079996;28;20380;-76
2023/04/29 01:07:32;;;;;;;0.10;0.10;;;12.50;99.90;;;;;;5079091;28;20172;-83
2023/04/29 01:10:23;;;;;;;1.10;1.10;;;12.50;99.90;;;;;;5079848;28;20491;-75
2023/04/29 01:13:16;;;;;;;0.10;0.10;;;12.50;99.90;;;;;;5080393;28;20039;-74
2023/04/29 01:16:02;;;;;;;0.10;0.10;;;12.50;99.90;;;;;;5079367;28;20044;-72
2023/04/29 01:18:54;;;;;;;0.10;0.10;;;12.50;99.90;;;;;;5081407;28;20035;-74
2023/04/29 01:21:21;;;;;;;0.57;0.57;;;12.50;99.90;;;;;;5082958;28;20025;-74
2023/04/29 01:23:54;;;;;;;0.30;0.30;;;12.50;99.90;;;;;;5081490;28;20013;-73
2023/04/29 01:26:21;;;;;;;9.50;8.80;;;12.40;99.90;;;;;;5081228;28;20237;-72
2023/04/29 01:28:57;;;;;;;0.10;0.10;;;12.40;99.90;;;;;;5078906;28;20506;-73
2023/04/29 01:31:43;;;;;;;0.10;0.10;;;12.40;99.90;;;;;;5078870;28;20036;-73
2023/04/29 01:34:13;;;;;;;0.50;0.50;;;12.40;99.90;;;;;;5079393;28;20324;-73
2023/04/29 01:37:00;;;;;;;0.73;0.73;;;12.40;99.90;;;;;;5079427;28;20024;-72
2023/04/29 01:39:36;;;;;;;0.10;0.10;;;12.30;99.90;;;;;;5079298;28;20238;-73
2023/04/29 01:42:13;;;;;;;0.00;0.00;;;12.30;99.90;;;;;;5079397;28;20145;-72
2023/04/29 01:44:41;;;;;;;0.00;0.00;;;12.30;99.90;;;;;;5079155;28;20338;-72
2023/04/29 01:47:09;;;;;;;0.10;0.10;;;11.20;99.90;;;;;;5078280;28;20308;-75
2023/04/29 01:49:36;;;;;;;0.10;0.10;;;12.30;99.90;;;;;;5078581;28;20208;-72
2023/04/29 01:52:02;;;;;;;0.40;0.40;;;12.30;99.90;;;;;;5078446;28;20429;-73
2023/04/29 01:54:28;;;;;;;0.03;0.03;;;12.30;99.90;;;;;;5076732;28;20050;-73
2023/04/29 01:56:56;;;;;;;0.10;0.10;;;12.30;99.90;;;;;;5078162;28;20110;-72
2023/04/29 01:59:21;;;;;;;0.10;0.10;;;12.30;99.90;;;;;;5078604;28;20039;-72
2023/04/29 02:01:47;;;;;;;0.20;0.20;;;12.30;99.90;;;;;;5075989;28;20490;-75
2023/04/29 02:04:13;;;;;;;0.17;0.17;;;12.30;99.90;;;;;;5078279;28;20179;-72
2023/04/29 02:06:39;;;;;;;0.10;0.10;;;12.30;99.90;;;;;;5078505;28;20085;-74
2023/04/29 02:09:04;;;;;;;0.20;0.20;;;12.30;99.90;;;;;;5076672;28;20340;-72
2023/04/29 02:11:30;;;;;;;0.10;0.10;;;12.30;99.90;;;;;;5078351;28;20189;-72
2023/04/29 02:13:56;;;;;;;0.15;0.15;;;12.30;99.90;;;;;;5079802;28;20036;-73
2023/04/29 02:16:23;;;;;;;0.10;0.10;;;12.30;99.90;;;;;;5080504;28;20016;-80
2023/04/29 02:18:49;;;;;;;0.15;0.15;;;12.30;99.90;;;;;;5061198;28;20327;-76
2023/04/29 02:21:15;;;;;;;0.10;0.10;;;12.30;99.90;;;;;;5079269;28;20534;-74
2023/04/29 02:23:40;;;;;;;0.10;0.10;;;12.30;99.90;;;;;;5078042;28;20024;-72
2023/04/29 02:26:08;;;;;;;0.10;0.10;;;12.30;99.90;;;;;;5079233;28;20052;-73
2023/04/29 02:28:34;;;;;;;0.10;0.10;;;12.30;99.90;;;;;;5079146;28;20308;-75
2023/04/29 02:31:00;;;;;;;0.10;0.10;;;12.30;99.90;;;;;;5077839;28;20027;-74
2023/04/29 02:33:26;;;;;;;0.10;0.10;;;12.30;99.90;;;;;;5078185;28;20046;-73
2023/04/29 02:35:51;;;;;;;0.10;0.10;;;12.30;99.90;;;;;;5076478;28;20433;-73
2023/04/29 02:38:18;;;;;;;0.10;0.10;;;12.30;99.90;;;;;;5078047;28;20508;-72
2023/04/29 02:40:46;;;;;;;0.10;0.10;;;12.30;99.90;;;;;;5077638;28;20058;-72
2023/04/29 02:43:12;;;;;;;0.10;0.10;;;12.30;99.90;;;;;;5078125;28;20024;-73
2023/04/29 02:45:38;;;;;;;0.15;0.15;;;12.30;99.90;;;;;;5075477;28;20082;-76
2023/04/29 02:48:05;;;;;;;0.85;0.85;;;12.30;99.90;;;;;;5077452;28;20509;-73
2023/04/29 02:50:31;;;;;;;0.10;0.10;;;12.30;99.90;;;;;;5077371;28;20028;-73
2023/04/29 02:52:57;;;;;;;0.10;0.10;;;12.20;99.90;;;;;;5076278;28;20032;-73
2023/04/29 02:55:23;;;;;;;0.28;0.28;;;12.30;99.90;;;;;;5077603;28;20383;-72
2023/04/29 02:57:49;;;;;;;0.47;0.47;;;12.30;99.90;;;;;;5077304;28;20280;-73
2023/04/29 03:00:15;;;;;;;0.00;0.00;;;12.20;99.90;;;;;;5078459;28;20020;-73
2023/04/29 03:02:40;;;;;;;0.20;0.20;;;12.20;99.90;;;;;;5079320;28;20016;-73
2023/04/29 03:05:06;;;;;;;0.00;0.00;;;12.30;99.90;;;;;;5079571;28;20050;-79
2023/04/29 03:07:33;;;;;;;5.03;4.82;;;12.20;99.90;;;;;;5080705;28;20153;-76
2023/04/29 03:09:58;;;;;;;0.20;0.20;;;12.20;99.90;;;;;;5081456;28;20557;-73
2023/04/29 03:12:24;;;;;;;0.10;0.10;;;12.10;99.90;;;;;;5082351;28;20040;-75
2023/04/29 03:14:51;;;;;;;0.10;0.10;;;12.00;99.90;;;;;;5082414;28;20073;-73
2023/04/29 03:17:17;;;;;;;0.10;0.10;;;12.00;99.90;;;;;;5082470;28;20020;-73
2023/04/29 03:19:43;;;;;;;0.08;0.08;;;12.00;99.90;;;;;;5082613;28;20088;-71
2023/04/29 03:22:12;;;;;;;0.10;0.10;;;12.00;99.90;;;;;;5080496;28;20024;-73
2023/04/29 03:24:38;;;;;;;0.10;0.10;;;12.00;99.90;;;;;;5084218;28;20032;-72
2023/04/29 03:27:04;;;;;;;0.10;0.10;;;12.10;99.90;;;;;;5081402;28;20036;-73
2023/04/29 03:29:30;;;;;;;0.30;0.30;;;12.00;99.90;;;;;;5082314;28;20024;-72
2023/04/29 03:31:56;;;;;;;0.10;0.10;;;12.00;99.90;;;;;;5081212;28;20277;-72
2023/04/29 03:34:23;;;;;;;4.35;3.95;;;12.00;99.90;;;;;;5079827;28;20036;-73
2023/04/29 03:36:50;;;;;;;0.10;0.10;;;12.00;99.90;;;;;;5081297;28;20206;-73
2023/04/29 03:39:16;;;;;;;0.55;0.55;;;12.00;99.90;;;;;;5082020;28;20019;-73
2023/04/29 03:41:42;;;;;;;0.10;0.10;;;12.00;99.90;;;;;;5082194;28;20024;-72
2023/04/29 03:44:08;;;;;;;0.10;0.10;;;12.00;99.90;;;;;;5079699;28;20024;-73
2023/04/29 03:46:34;;;;;;;0.50;0.50;;;12.00;99.90;;;;;;5081321;28;20510;-74
2023/04/29 03:49:00;;;;;;;0.08;0.08;;;11.90;99.90;;;;;;5081530;28;20028;-73
2023/04/29 03:51:26;;;;;;;0.10;0.10;;;11.90;99.90;;;;;;5082917;28;20035;-73
2023/04/29 03:53:53;;;;;;;0.10;0.10;;;11.90;99.90;;;;;;5085812;28;20046;-73
2023/04/29 03:56:19;;;;;;;21.20;6.50;;;12.00;99.90;;;;;;5086790;28;20077;-78
2023/04/29 03:58:45;;;;;;;0.10;0.10;;;12.00;99.90;;;;;;5088463;28;20023;-73
2023/04/29 04:01:11;;;;;;;0.10;0.10;;;12.00;99.90;;;;;;5086981;28;20016;-73
2023/04/29 04:03:37;;;;;;;0.10;0.10;;;11.90;99.90;;;;;;5084224;28;20035;-72
2023/04/29 04:06:03;;;;;;;0.10;0.10;;;11.90;99.90;;;;;;5081482;28;20016;-73
2023/04/29 04:08:29;;;;;;;0.10;0.10;;;11.60;99.90;;;;;;5081545;28;20020;-72
2023/04/29 04:11:01;;;;;;;0.10;0.10;;;11.90;99.90;;;;;;5081748;28;20024;-72
2023/04/29 04:13:28;;;;;;;0.10;0.10;;;11.90;99.90;;;;;;5081747;28;20232;-75
2023/04/29 04:15:54;;;;;;;0.03;0.03;;;11.90;99.90;;;;;;5083342;28;20251;-75
2023/04/29 04:18:20;;;;;;;0.10;0.10;;;12.00;99.90;;;;;;5084850;28;20308;-72
2023/04/29 04:20:46;;;;;;;0.10;0.10;;;12.00;99.90;;;;;;5082323;28;20334;-74
2023/04/29 04:23:12;;;;;;;0.10;0.10;;;12.00;99.90;;;;;;5082057;28;20016;-73
2023/04/29 04:25:38;;;;;;;0.10;0.10;;;12.00;99.90;;;;;;5080955;28;20304;-76
2023/04/29 04:28:03;;;;;;;0.10;0.10;;;12.00;99.90;;;;;;5081390;28;20028;-76
2023/04/29 04:30:29;;;;;;;0.00;0.00;;;12.00;99.90;;;;;;5080463;28;20028;-72
2023/04/29 04:32:55;;;;;;;0.10;0.10;;;12.00;99.90;;;;;;5077683;28;20526;-72
2023/04/29 04:35:21;;;;;;;0.10;0.10;;;12.10;99.90;;;;;;5079852;28;20016;-73
2023/04/29 04:37:46;;;;;;;0.10;0.10;;;12.10;99.90;;;;;;5078117;28;20020;-72
2023/04/29 04:40:12;;;;;;;0.10;0.10;;;12.00;99.90;;;;;;5079975;28;20039;-72
2023/04/29 04:42:38;;;;;;;0.25;0.25;;;12.10;99.90;;;;;;5078208;28;20035;-72
2023/04/29 04:45:06;;;;;;;0.22;0.22;;;12.10;99.90;;;;;;5079837;28;20316;-76
2023/04/29 04:47:31;;;;;;;0.10;0.10;;;12.10;99.90;;;;;;5079419;28;20024;-73
2023/04/29 04:49:57;;;;;;;0.10;0.10;;;12.10;99.90;;;;;;5079484;28;20032;-72
2023/04/29 04:52:23;;;;;;;0.10;0.10;;;12.10;99.90;;;;;;5077804;28;20400;-74
2023/04/29 04:54:49;;;;;;;0.10;0.10;;;12.10;99.90;;;;;;5079279;28;20146;-72
2023/04/29 04:57:15;;;;;;;0.10;0.10;;;12.10;99.90;;;;;;5079007;28;20020;-72
2023/04/29 04:59:42;;;;;;;0.10;0.10;;;12.20;99.90;;;;;;5079481;28;20024;-73
2023/04/29 05:02:07;;;;;;;0.08;0.08;;;12.10;99.90;;;;;;5079183;28;20212;-73
2023/04/29 05:04:33;;;;;;;0.10;0.10;;;12.20;99.90;;;;;;5079350;28;20043;-73
2023/04/29 05:06:59;;;;;;;0.10;0.10;;;12.20;99.90;;;;;;5079253;28;20020;-72
2023/04/29 05:09:25;;;;;;;0.25;0.25;;;12.20;99.90;;;;;;5079404;28;20307;-72
2023/04/29 05:11:51;;;;;;;0.10;0.10;;;12.20;99.90;;;;;;5077729;28;20392;-77
2023/04/29 05:14:17;;;;;;;0.10;0.10;;;12.30;99.90;;;;;;5078589;28;20059;-72
2023/04/29 05:16:45;;;;;;;0.10;0.10;;;12.30;99.90;;;;;;5079162;28;20020;-72
2023/04/29 05:19:11;;;;;;;0.10;0.10;;;12.40;99.90;;;;;;5079227;28;20052;-76
2023/04/29 05:21:36;;;;;;;0.10;0.10;;;12.40;99.90;;;;;;5079336;28;20048;-77
2023/04/29 05:24:02;;;;;;;0.10;0.10;;;12.40;99.90;;;;;;5079446;28;20613;-73
2023/04/29 05:26:28;;;;;;;0.10;0.10;;;12.40;99.90;;;;;;5079566;28;20016;-79
2023/04/29 05:28:54;;;;;;;0.20;0.20;;;12.50;99.90;;;;;;5083317;28;20095;-74
2023/04/29 05:31:20;;;;;;;0.10;0.10;;;12.50;99.90;;;;;;5080077;28;20085;-71
2023/04/29 05:33:46;;;;;;;0.10;0.10;;;12.60;99.90;;;;;;5080615;28;20039;-71
2023/04/29 05:36:12;;;;;;;0.25;0.25;;;12.60;99.90;;;;;;5079306;28;20017;-73
2023/04/29 05:38:37;;;;;;;0.10;0.10;;;12.50;99.90;;;;;;5077970;28;20546;-72
2023/04/29 05:41:04;;;;;;;2.05;1.95;;;12.60;99.90;;;;;;5077896;28;20127;-73
2023/04/29 05:43:30;;;;;;;0.10;0.10;;;12.60;99.90;;;;;;5077782;28;20073;-71
2023/04/29 05:45:56;;;;;;;0.40;0.40;;;12.60;99.90;;;;;;5076064;28;20024;-72
2023/04/29 05:48:22;;;;;;;0.93;0.93;;;12.70;99.90;;;;;;5077946;28;20307;-72
2023/04/29 05:50:48;;;;;;;0.10;0.10;;;12.80;99.90;;;;;;5077613;28;20232;-83
2023/04/29 05:53:14;;;;;;;0.10;0.10;;;12.80;99.90;;;;;;5077381;28;20074;-72
2023/04/29 05:55:43;;;;;;;0.10;0.10;;;12.90;99.90;;;;;;5077600;28;20494;-73
2023/04/29 05:58:09;;;;;;;2.65;2.55;;;12.90;99.90;;;;;;5077326;28;20093;-73
2023/04/29 06:00:34;;;;;;;0.45;0.45;;;12.90;99.90;;;;;;5077284;28;20052;-72
2023/04/29 06:03:01;;;;;;;0.20;0.20;;;13.00;99.90;;;;;;5077491;28;20027;-73
2023/04/29 06:05:27;;;;;;;0.43;0.43;;;14.70;99.90;;;;;;5077380;28;20495;-72
2023/04/29 06:07:53;;;;;;;2.85;2.75;;;13.00;99.90;;;;;;5077342;28;20129;-72
2023/04/29 06:10:19;;;;;;;0.10;0.10;;;13.10;99.90;;;;;;5077573;28;20203;-72
2023/04/29 06:12:45;;;;;;;2.08;1.95;;;13.10;99.90;;;;;;5077300;28;20032;-71
2023/04/29 06:15:11;;;;;;;0.10;0.10;;;13.10;99.90;;;;;;5075585;28;20374;-71
2023/04/29 06:17:37;;;;;;;0.10;0.10;;;13.20;99.90;;;;;;5077453;28;20023;-73
2023/04/29 06:20:03;;;;;;;0.20;0.20;;;13.20;99.90;;;;;;5077908;28;20129;-77
2023/04/29 06:22:29;;;;;;;0.10;0.10;;;13.30;99.90;;;;;;5078215;28;20016;-73
2023/04/29 06:24:55;;;;;;;0.10;0.10;;;13.40;99.90;;;;;;5077075;28;20542;-74
2023/04/29 06:27:21;;;;;;;0.75;0.75;;;13.50;99.90;;;;;;5077702;28;20107;-71
2023/04/29 06:29:46;;;;;;;0.10;0.10;;;13.60;99.90;;;;;;5078147;28;20016;-75
2023/04/29 06:32:12;;;;;;;1.85;1.75;;;13.70;99.90;;;;;;5077896;28;20027;-77
2023/04/29 06:34:38;;;;;;;0.10;0.10;;;13.80;99.90;;;;;;5078766;28;20013;-79
2023/04/29 06:37:04;;;;;;;0.10;0.10;;;13.80;99.90;;;;;;5079146;28;20024;-75
2023/04/29 06:39:30;;;;;;;1.10;1.10;;;13.80;99.90;;;;;;5078081;28;20022;-86
2023/04/29 06:41:57;;;;;;;0.20;0.20;;;13.80;99.90;;;;;;5078240;28;20016;-80
2023/04/29 06:44:23;;;;;;;0.10;0.10;;;13.90;99.90;;;;;;5079985;28;20020;-80
2023/04/29 06:46:49;;;;;;;0.30;0.30;;;13.90;99.90;;;;;;5081826;28;20161;-72
2023/04/29 06:49:15;;;;;;;0.20;0.20;;;13.90;99.90;;;;;;5082239;28;20040;-73
2023/04/29 06:51:41;;;;;;;0.63;0.63;;;14.00;99.90;;;;;;5082545;28;20077;-74
2023/04/29 06:54:07;;;;;;;0.10;0.10;;;13.70;99.90;;;;;;5081972;28;20039;-77
2023/04/29 06:56:33;;;;;;;0.20;0.20;;;14.10;99.90;;;;;;5082238;28;20023;-79
2023/04/29 06:58:58;;;;;;;4.38;3.03;;;14.20;99.90;;;;;;5082644;28;20028;-76
2023/04/29 07:01:24;;;;;;;0.20;0.20;;;14.40;99.90;;;;;;5082368;28;20545;-74
2023/04/29 07:03:50;;;;;;;3.17;1.70;;;14.40;99.90;;;;;;5082658;28;20710;-73
2023/04/29 07:06:16;;;;;;;0.30;0.30;;;14.50;99.90;;;;;;5083134;28;20038;-74
2023/04/29 07:08:42;;;;;;;0.15;0.15;;;14.50;99.90;;;;;;5082670;28;20020;-81
2023/04/29 07:11:08;;;;;;;0.10;0.10;;;14.60;99.90;;;;;;5083176;28;20020;-84
2023/04/29 07:13:34;;;;;;;0.20;0.20;;;;;;;;;;5082603;28;20073;-76
2023/04/29 07:16:00;;;;;;;0.10;0.10;;;14.50;99.90;;;;;;5081357;28;20009;-83
2023/04/29 07:18:25;;;;;;;0.10;0.10;;;14.50;99.90;;;;;;5082148;28;20694;-78
2023/04/29 07:20:51;;;;;;;0.10;0.10;;;14.60;99.90;;;;;;5082140;28;20023;-79
2023/04/29 07:23:17;;;;;;;0.40;0.40;;;14.60;99.90;;;;;;5081146;28;20039;-71
2023/04/29 07:25:43;;;;;;;0.38;0.38;;;14.60;99.90;;;;;;5081280;28;20050;-72
2023/04/29 07:28:09;;;;;;;0.20;0.20;;;14.60;99.90;;;;;;5081012;28;20062;-75
2023/04/29 07:30:35;;;;;;;0.10;0.10;;;14.60;99.90;;;;;;5081725;28;20024;-71
2023/04/29 07:33:01;;;;;;;0.98;0.95;;;14.70;99.90;;;;;;5081306;28;20557;-74
2023/04/29 07:35:27;;;;;;;0.10;0.10;;;14.70;99.90;;;;;;5081691;28;20072;-77
2023/04/29 07:37:53;;;;;;;0.20;0.20;;;14.70;99.90;;;;;;5081291;28;20024;-71
2023/04/29 07:40:18;;;;;;;1.00;1.00;;;14.80;99.90;;;;;;5081188;28;20057;-73
2023/04/29 07:42:44;;;;;;;0.10;0.10;;;16.40;99.90;;;;;;5081357;28;20058;-78
2023/04/29 07:45:12;;;;;;;0.20;0.20;;;14.90;99.90;;;;;;5082005;28;20016;-78
2023/04/29 07:47:38;;;;;;;0.17;0.17;;;14.90;99.90;;;;;;5081076;28;20046;-70
2023/04/29 07:50:04;;;;;;;1.38;1.33;;;16.60;99.90;;;;;;5080633;28;20024;-73
2023/04/29 07:52:30;;;;;;;0.38;0.38;;;15.00;99.90;;;;;;5080101;28;20070;-72
2023/04/29 07:54:55;;;;;;;0.22;0.22;;;15.00;99.90;;;;;;5079330;28;20729;-76
2023/04/29 07:57:22;;;;;;;6.22;5.93;;;15.00;99.90;;;;;;5080199;28;20650;-71
2023/04/29 07:59:52;;;;;;;1.23;1.17;;;15.00;99.90;;;;;;5080530;28;20020;-75
2023/04/29 08:02:17;;;;;;;7.90;2.85;;;15.00;99.90;;;;;;5079994;28;20257;-71
2023/04/29 08:04:43;;;;;;;0.30;0.30;;;15.10;99.90;;;;;;5081641;28;20021;-69
2023/04/29 08:07:09;;;;;;;0.50;0.50;;;15.10;99.90;;;;;;5084999;28;20029;-73
2023/04/29 08:09:35;;;;;;;0.60;0.60;;;15.10;99.90;;;;;;5082747;28;20027;-73
2023/04/29 08:12:01;;;;;;;2.35;2.25;;;15.10;99.90;;;;;;5080994;28;20038;-74
2023/04/29 08:14:27;;;;;;;0.20;0.20;;;15.20;99.90;;;;;;5083119;28;20027;-72
2023/04/29 08:16:54;;;;;;;0.20;0.20;;;15.20;99.90;;;;;;5082018;28;20012;-74
2023/04/29 08:19:20;;;;;;;0.20;0.20;;;15.30;99.90;;;;;;5082974;28;20407;-75
2023/04/29 08:21:46;;;;;;;0.20;0.20;;;15.40;99.90;;;;;;5083217;28;20017;-72
2023/04/29 08:24:12;;;;;;;0.13;0.13;;;15.50;99.90;;;;;;5083263;28;20740;-71
2023/04/29 08:26:41;;;;;;;0.20;0.20;;;15.50;99.90;;;;;;5081904;28;20162;-71
2023/04/29 08:29:07;;;;;;;0.20;0.20;;;15.50;99.90;;;;;;5081073;28;20024;-73
2023/04/29 08:31:33;;;;;;;22.58;3.30;;;15.60;99.90;;;;;;5080582;28;20028;-71
2023/04/29 08:33:59;;;;;;;0.77;0.77;;;15.50;99.90;;;;;;5081223;28;20119;-71
2023/04/29 08:36:27;;;;;;;1.60;1.55;;;15.50;99.90;;;;;;5079689;28;20029;-71
2023/04/29 08:38:53;;;;;;;0.10;0.10;;;15.60;99.90;;;;;;5079865;28;20016;-72
2023/04/29 08:41:22;;;;;;;1.05;1.00;;;15.50;99.90;;;;;;5079824;28;20013;-72
2023/04/29 08:43:47;;;;;;;0.95;0.80;;;15.50;99.90;;;;;;5079714;28;20169;-71
2023/04/29 08:46:14;;;;;;;0.10;0.10;;;15.60;99.90;;;;;;5079619;28;20317;-72
2023/04/29 08:48:40;;;;;;;1.92;1.85;;;15.60;99.90;;;;;;5079667;28;20516;-71
2023/04/29 08:51:11;;;;;;;0.75;0.75;;;15.60;99.90;;;;;;5079442;28;20032;-73
2023/04/29 08:53:37;;;;;;;3.70;2.85;;;15.70;99.90;;;;;;5079187;28;20174;-73
2023/04/29 08:56:10;;;;;;;0.85;0.65;;;15.70;99.90;;;;;;5079375;28;20096;-73
2023/04/29 08:58:38;;;;;;;1.40;1.30;;;15.70;99.90;;;;;;5079392;28;20031;-71
2023/04/29 09:01:09;;;;;;;0.10;0.10;;;15.80;99.90;;;;;;5079368;28;20107;-74
2023/04/29 09:03:55;;;;;;;0.38;0.38;;;15.90;99.90;;;;;;5079202;28;20052;-71
2023/04/29 09:06:21;;;;;;;1.20;0.57;;;16.00;99.90;;;;;;5078642;28;20141;-75
2023/04/29 09:08:47;;;;;;;0.35;0.35;;;16.10;99.90;;;;;;5079545;28;20046;-75
2023/04/29 09:11:14;;;;;;;2.22;2.05;;;16.20;99.90;;;;;;5079110;28;20100;-72
2023/04/29 09:13:40;;;;;;;2.38;2.28;;;16.40;99.90;;;;;;5080078;28;20058;-72
2023/04/29 09:16:12;;;;;;;0.20;0.20;;;16.50;99.90;;;;;;5080773;28;20013;-71
2023/04/29 09:18:42;;;;;;;0.10;0.10;;;16.50;99.90;;;;;;5078064;28;20124;-73
2023/04/29 09:21:18;;;;;;;0.20;0.20;;;16.70;99.90;;;;;;5080040;28;20024;-72
2023/04/29 09:23:46;;;;;;;0.10;0.10;;;16.70;99.90;;;;;;5080884;28;20024;-72
2023/04/29 09:26:12;;;;;;;0.20;0.20;;;16.80;99.90;;;;;;5078395;28;20020;-72
2023/04/29 09:28:40;;;;;;;0.15;0.15;;;16.90;99.90;;;;;;5080119;28;20467;-73
2023/04/29 09:31:07;;;;;;;0.20;0.20;;;17.00;99.90;;;;;;5080083;28;20024;-72
2023/04/29 09:33:53;;;;;;;2.25;2.15;;;17.00;99.90;;;;;;5080478;28;20046;-73
2023/04/29 09:36:55;;;;;;;0.20;0.20;;;17.10;99.90;;;;;;5079524;28;20104;-73
2023/04/29 09:39:22;;;;;;;0.38;0.38;;;17.30;99.90;;;;;;5016441;28;20120;-72
2023/04/29 09:41:51;;;;;;;0.10;0.10;;;17.50;99.90;;;;;;5018968;28;20033;-74
2023/04/29 09:44:22;;;;;;;1.77;1.67;;;17.60;99.90;;;;;;5016455;28;20025;-73
2023/04/29 09:47:07;;;;;;;0.20;0.20;;;17.90;99.90;;;;;;5015671;28;20049;-73
2023/04/29 09:49:44;;;;;;;1.92;1.83;;;18.20;99.90;;;;;;5015391;28;20591;-72
2023/04/29 09:52:15;;;;;;;1.00;1.00;;;18.40;99.90;;;;;;5015322;28;20097;-72
2023/04/29 09:54:43;;;;;;;7.53;3.60;;;18.70;99.90;;;;;;5014684;28;20200;-75
2023/04/29 09:57:11;;;;;;;0.10;0.10;;;18.90;99.10;;;;;;5015083;28;20042;-71
2023/04/29 09:59:39;;;;;;;0.30;0.30;;;19.20;98.00;;;;;;5015044;28;20405;-74
2023/04/29 10:02:16;;;;;;;0.30;0.30;;;19.50;95.00;;;;;;5014752;28;20581;-72
2023/04/29 10:04:45;;;;;;;0.10;0.10;;;19.70;92.80;;;;;;5015224;28;20087;-74
2023/04/29 10:07:15;;;;;;;0.45;0.45;;;20.00;93.90;;;;;;5015038;28;20033;-75
2023/04/29 10:09:43;;;;;;;1.38;0.82;;;20.30;93.10;;;;;;4999149;28;20748;-86
2023/04/29 10:12:09;;;;;;;0.10;0.10;;;20.50;92.40;;;;;;5016372;28;20088;-75
2023/04/29 10:14:43;;;;;;;0.40;0.40;;;20.60;90.20;;;;;;5039280;28;20096;-74
2023/04/29 10:17:35;;;;;;;0.63;0.38;;;20.90;87.90;;;;;;5078675;28;20023;-72
2023/04/29 10:20:05;;;;;;;0.30;0.30;;;21.00;84.10;;;;;;5078633;28;20574;-77
2023/04/29 10:22:52;;;;;;;0.10;0.10;;;21.10;81.50;;;;;;5078402;28;20016;-73
2023/04/29 10:25:20;;;;;;;0.38;0.38;;;21.20;80.50;;;;;;5077433;28;20020;-78
2023/04/29 10:27:47;;;;;;;0.10;0.10;;;21.40;79.10;;;;;;5077272;28;20036;-74
2023/04/29 10:30:15;;;;;;;0.10;0.10;;;21.40;75.70;;;;;;5077964;28;20016;-72
2023/04/29 10:32:44;;;;;;;0.20;0.20;;;21.60;75.80;;;;;;5077515;28;20055;-71
2023/04/29 10:35:13;;;;;;;0.10;0.10;;;21.90;74.80;;;;;;5078009;28;20013;-72
2023/04/29 10:37:44;;;;;;;0.10;0.10;;;22.30;72.70;;;;;;5077888;28;20024;-71
2023/04/29 10:40:27;;;;;;;0.10;0.10;;;22.60;71.70;;;;;;5080816;28;20020;-72
2023/04/29 10:42:54;;;;;;;0.40;0.40;;;22.80;71.20;;;;;;5089605;28;20028;-73
2023/04/29 10:45:31;;;;;;;0.00;0.00;;;22.80;68.70;;;;;;5083549;28;20043;-74
2023/04/29 10:48:07;;;;;;;1.23;0.40;;;22.70;68.70;;;;;;5082863;28;20032;-72
2023/04/29 10:50:48;;;;;;;0.60;0.60;;;22.50;68.30;;;;;;5082953;28;20028;-72
2023/04/29 10:53:15;;;;;;;0.10;0.10;;;22.70;69.40;;;;;;5079083;28;20724;-74
2023/04/29 10:55:45;;;;;;;0.25;0.25;;;22.90;69.10;;;;;;5077404;28;20111;-74
2023/04/29 10:58:33;;;;;;;0.10;0.10;;;22.90;67.00;;;;;;5077559;28;20049;-71
2023/04/29 11:01:00;;;;;;;0.15;0.15;;;22.80;66.80;;;;;;5078242;28;20009;-78
2023/04/29 11:03:53;;;;;;;1.30;0.63;;;22.30;66.50;;;;;;5077665;28;20103;-77
2023/04/29 11:06:19;;;;;;;0.00;0.00;;;22.40;69.80;;;;;;5077791;28;20020;-73
2023/04/29 11:08:45;;;;;;;0.25;0.25;;;22.60;70.50;;;;;;5077229;28;20034;-73
2023/04/29 11:11:14;;;;;;;0.10;0.10;;;22.90;68.40;;;;;;5077793;28;20340;-74
2023/04/29 11:13:40;;;;;;;0.25;0.25;;;23.10;67.00;;;;;;5077892;28;20035;-77
2023/04/29 11:16:07;;;;;;;0.10;0.10;;;23.20;65.60;;;;;;5077725;28;20040;-75
2023/04/29 11:18:35;;;;;;;0.47;0.47;;;23.30;65.80;;;;;;5077331;28;20112;-74
2023/04/29 11:21:03;;;;;;;0.10;0.10;;;23.30;67.40;;;;;;5077650;28;20028;-79
2023/04/29 11:23:30;;;;;;;0.13;0.13;;;23.50;67.50;;;;;;5077622;28;20021;-71
2023/04/29 11:25:56;;;;;;;0.20;0.20;;;23.40;64.30;;;;;;5076421;28;20085;-72
2023/04/29 11:28:23;;;;;;;0.10;0.10;;;23.20;63.70;;;;;;5076756;28;20262;-71
2023/04/29 11:30:52;;;;;;;0.43;0.43;;;23.00;63.40;;;;;;5077750;28;20127;-73
2023/04/29 11:33:21;;;;;;;0.10;0.10;;;22.70;64.70;;;;;;5080609;28;20032;-71
2023/04/29 11:35:47;;;;;;;0.10;0.10;;;22.50;64.90;;;;;;5080604;28;20068;-73
2023/04/29 11:38:13;;;;;;;0.35;0.30;;;22.40;65.50;;;;;;5080417;28;20475;-71
2023/04/29 11:40:49;;;;;;;0.10;0.10;;;22.50;65.80;;;;;;5080472;28;20479;-75
2023/04/29 11:43:19;;;;;;;0.10;0.10;;;22.50;65.10;;;;;;5079007;28;20038;-72
2023/04/29 11:45:50;;;;;;;0.10;0.10;;;22.70;65.20;;;;;;5079537;28;20032;-73
2023/04/29 11:48:24;;;;;;;0.15;0.15;;;23.00;64.50;;;;;;5080714;28;20055;-76
2023/04/29 11:50:57;;;;;;;0.10;0.10;;;23.20;64.50;;;;;;5081749;28;20024;-77
2023/04/29 11:53:26;;;;;;;0.10;0.10;;;23.30;64.40;;;;;;5081281;28;20774;-74
2023/04/29 11:55:53;;;;;;;0.10;0.10;;;23.40;63.60;;;;;;5081144;28;20023;-74
2023/04/29 11:58:23;;;;;;;0.52;0.38;;;23.40;63.50;;;;;;5080646;28;20012;-75
2023/04/29 12:00:50;;;;;;;0.10;0.10;;;23.80;63.60;;;;;;5081210;28;20020;-75
2023/04/29 12:03:18;;;;;;;0.10;0.10;;;23.80;63.20;;;;;;5080328;28;20022;-76
2023/04/29 12:05:51;;;;;;;0.10;0.10;;;24.10;63.10;;;;;;5080422;28;20099;-78
2023/04/29 12:08:20;;;;;;;0.15;0.10;;;24.00;63.80;;;;;;5080529;28;20027;-72
2023/04/29 12:10:47;;;;;;;0.10;0.10;;;24.40;63.10;;;;;;5080273;28;20016;-71
2023/04/29 12:13:13;;;;;;;0.32;0.25;;;24.70;63.10;;;;;;5081130;28;20103;-73
2023/04/29 12:15:39;;;;;;;0.00;0.00;;;25.00;61.60;;;;;;5080244;28;20510;-76
2023/04/29 12:18:06;;;;;;;0.00;0.00;;;25.40;62.20;;;;;;5080429;28;20024;-76
2023/04/29 12:20:31;;;;;;;0.10;0.10;;;25.40;62.00;;;;;;5080750;28;20036;-74
2023/04/29 12:23:14;;;;;;;0.00;0.00;;;25.80;61.30;;;;;;5080188;28;20230;-76
2023/04/29 12:25:40;;;;;;;0.00;0.00;;;26.40;60.10;;;;;;5080648;28;20054;-83
2023/04/29 12:28:14;;;;;;;0.10;0.10;;;27.00;60.40;;;;;;5078767;28;20028;-75
2023/04/29 12:30:40;;;;;;;0.00;0.00;;;27.20;58.20;;;;;;5080154;28;20519;-76
2023/04/29 12:33:09;;;;;;;1.38;1.27;;;27.70;58.80;;;;;;5079900;28;20047;-72
2023/04/29 12:35:36;;;;;;;0.73;0.52;;;27.80;57.70;;;;;;5080110;28;20024;-72
2023/04/29 12:38:02;;;;;;;1.00;0.55;;;28.10;58.10;;;;;;5079771;28;20395;-73
2023/04/29 12:40:28;;;;;;;0.00;0.00;;;28.10;56.40;;;;;;5079559;28;20023;-72
2023/04/29 12:42:54;;;;;;;0.50;0.50;;;28.10;57.20;;;;;;5079370;28;20503;-78
2023/04/29 12:45:31;;;;;;;0.10;0.10;;;28.20;56.50;;;;;;5080150;28;20668;-73
2023/04/29 12:47:57;;;;;;;0.00;0.00;;;27.80;57.40;;;;;;5080216;28;20742;-74
2023/04/29 12:50:37;;;;;;;0.00;0.00;;;27.60;56.40;;;;;;5079648;28;20073;-76
2023/04/29 12:53:07;;;;;;;0.10;0.10;;;26.90;57.40;;;;;;5079418;28;20020;-76